Terminal Aerodrome Forecast
Issued by NWS Shreveport, LA

Home | Current Version | Previous Version | Text Only | Print | Product List | Glossary On
Versions: 1 2 3 4 5 6 7 8 9 10 11 12 13
000
FTUS44 KSHV 021745
TAFTXK
TAF
KTXK 021745Z 0218/0318 VRB04KT P6SM FEW070 FEW250
     FM030000 12004KT P6SM SCT250
     FM030600 VRB03KT P6SM SCT250=

USA.gov is the U.S. government's official web portal to all federal, state and local government web resources and services.